createdAt,value
2023-06-26T00:01:59.977Z,25.48
2023-06-26T00:04:02.322Z,25.47
2023-06-26T00:06:04.138Z,25.48
2023-06-26T00:08:06.987Z,25.47
2023-06-26T00:10:08.577Z,25.47
2023-06-26T00:12:10.137Z,25.46
2023-06-26T00:14:11.605Z,25.44
2023-06-26T00:16:13.419Z,25.44
2023-06-26T00:18:14.938Z,25.42
2023-06-26T00:20:17.469Z,25.42
2023-06-26T00:22:19.417Z,25.40
2023-06-26T00:24:20.895Z,25.41
2023-06-26T00:26:22.408Z,25.40
2023-06-26T00:28:23.892Z,25.40
2023-06-26T00:30:25.539Z,25.39
2023-06-26T00:32:27.054Z,25.39
2023-06-26T00:34:28.659Z,25.37
2023-06-26T00:36:30.789Z,25.36
2023-06-26T00:38:32.669Z,25.36
2023-06-26T00:40:34.353Z,25.36
2023-06-26T00:42:35.819Z,25.35
2023-06-26T00:44:37.316Z,25.32
2023-06-26T00:46:38.878Z,25.32
2023-06-26T00:48:44.276Z,25.32
2023-06-26T00:50:47.417Z,25.30
2023-06-26T00:52:48.920Z,25.31
2023-06-26T00:54:52.458Z,25.31
2023-06-26T00:56:53.956Z,25.30
2023-06-26T00:58:55.460Z,25.28
2023-06-26T01:00:57.375Z,25.26
2023-06-26T01:03:00.911Z,25.26
2023-06-26T01:05:07.312Z,25.24
2023-06-26T01:07:09.201Z,25.25
2023-06-26T01:09:10.750Z,25.25
2023-06-26T01:11:13.067Z,25.23
2023-06-26T01:13:15.645Z,25.22
2023-06-26T01:15:17.192Z,25.22
2023-06-26T01:17:18.904Z,25.20
2023-06-26T01:19:26.345Z,25.19
2023-06-26T01:21:33.601Z,25.19
2023-06-26T01:23:48.698Z,25.18
2023-06-26T01:26:08.672Z,25.18
2023-06-26T01:28:10.414Z,25.16
2023-06-26T01:30:12.251Z,25.16
2023-06-26T01:32:13.768Z,25.15
2023-06-26T01:34:16.323Z,25.15
2023-06-26T01:36:17.936Z,25.13
2023-06-26T01:38:20.985Z,25.12
2023-06-26T01:40:22.549Z,25.13
2023-06-26T01:42:24.039Z,25.11
2023-06-26T01:44:28.306Z,25.11
2023-06-26T01:46:54.970Z,25.10
2023-06-26T01:49:00.768Z,25.08
2023-06-26T01:51:02.686Z,25.07
2023-06-26T01:53:08.227Z,25.07
2023-06-26T01:55:15.500Z,25.06
2023-06-26T01:59:26.939Z,25.04
2023-06-26T02:01:28.980Z,25.03
2023-06-26T02:03:31.759Z,25.03
2023-06-26T02:05:33.822Z,25.01
2023-06-26T02:07:35.319Z,25.01
2023-06-26T02:09:36.775Z,25.01
2023-06-26T02:11:38.289Z,25.00
2023-06-26T02:13:39.777Z,25.00
2023-06-26T02:15:41.204Z,24.99
2023-06-26T02:17:42.756Z,25.00
2023-06-26T02:19:48.678Z,24.99
2023-06-26T02:21:50.732Z,24.97
2023-06-26T02:23:52.313Z,24.97
2023-06-26T02:25:53.808Z,24.97
2023-06-26T02:27:55.988Z,24.96
2023-06-26T02:29:57.514Z,24.95
2023-06-26T02:31:59.016Z,24.94
2023-06-26T02:34:00.703Z,24.94
2023-06-26T02:36:02.342Z,24.92
2023-06-26T02:38:03.872Z,24.93
2023-06-26T02:40:06.144Z,24.93
2023-06-26T02:42:07.677Z,24.91
2023-06-26T02:44:09.284Z,24.90
2023-06-26T02:46:10.739Z,24.89
2023-06-26T02:48:12.223Z,24.88
2023-06-26T02:50:13.809Z,24.87
2023-06-26T02:52:15.333Z,24.86
2023-06-26T02:54:17.079Z,24.85
2023-06-26T02:56:18.575Z,24.84
2023-06-26T02:58:20.054Z,24.83
2023-06-26T03:00:21.613Z,24.83
2023-06-26T03:02:23.106Z,24.82
2023-06-26T03:04:24.810Z,24.82
2023-06-26T03:06:26.531Z,24.81
2023-06-26T03:08:28.039Z,24.80
2023-06-26T03:10:29.669Z,24.79
2023-06-26T03:12:31.148Z,24.79
2023-06-26T03:14:33.176Z,24.78
2023-06-26T03:16:34.800Z,24.78
2023-06-26T03:18:36.382Z,24.78
2023-06-26T03:20:38.287Z,24.77
2023-06-26T03:22:40.016Z,24.76
2023-06-26T03:24:41.581Z,24.76
2023-06-26T03:26:43.080Z,24.74
2023-06-26T03:28:47.439Z,24.74
2023-06-26T03:30:48.932Z,24.73
2023-06-26T03:32:50.446Z,24.72
2023-06-26T03:34:54.024Z,24.72
2023-06-26T03:36:55.614Z,24.72
2023-06-26T03:38:58.141Z,24.70
2023-06-26T03:40:59.885Z,24.70
2023-06-26T03:43:01.446Z,24.70
2023-06-26T03:45:03.314Z,24.69
2023-06-26T03:47:04.901Z,24.68
2023-06-26T03:49:07.489Z,24.66
2023-06-26T03:51:10.767Z,24.68
2023-06-26T03:53:12.317Z,24.67
2023-06-26T03:55:13.793Z,24.66
2023-06-26T03:57:15.346Z,24.65
2023-06-26T03:59:16.942Z,24.64
2023-06-26T04:01:18.468Z,24.63
2023-06-26T04:03:20.451Z,24.63
2023-06-26T04:05:21.998Z,24.62
2023-06-26T04:07:23.803Z,24.62
2023-06-26T04:09:25.405Z,24.60
2023-06-26T04:11:27.803Z,24.61
2023-06-26T04:13:29.241Z,24.60
2023-06-26T04:15:30.800Z,24.60
2023-06-26T04:17:32.417Z,24.59
2023-06-26T04:19:35.141Z,24.58
2023-06-26T04:21:37.319Z,24.58
2023-06-26T04:23:39.391Z,24.56
2023-06-26T04:29:48.724Z,24.56
2023-06-26T04:31:50.230Z,24.55
2023-06-26T04:33:52.024Z,24.54
2023-06-26T04:42:14.685Z,24.53
2023-06-26T04:44:16.282Z,24.51
2023-06-26T04:46:17.918Z,24.52
2023-06-26T04:48:19.421Z,24.51
2023-06-26T04:54:33.715Z,24.50
2023-06-26T04:56:35.483Z,24.49
2023-06-26T04:58:36.967Z,24.49
2023-06-26T05:00:38.670Z,24.48
2023-06-26T05:04:48.141Z,24.47
2023-06-26T05:06:49.725Z,24.47
2023-06-26T05:08:51.516Z,24.46
2023-06-26T05:10:54.500Z,24.46
2023-06-26T05:12:56.111Z,24.46
2023-06-26T05:17:04.245Z,24.46
2023-06-26T05:19:05.825Z,24.45
2023-06-26T05:21:07.713Z,24.44
2023-06-26T05:23:11.655Z,24.45
2023-06-26T05:25:14.011Z,24.44
2023-06-26T05:27:22.240Z,24.43
2023-06-26T05:31:32.108Z,24.43
2023-06-26T05:33:35.754Z,24.43
2023-06-26T05:35:37.458Z,24.42
2023-06-26T05:37:39.013Z,24.42
2023-06-26T05:43:49.185Z,24.39
2023-06-26T05:45:50.727Z,24.38
2023-06-26T05:47:52.430Z,24.38
2023-06-26T05:49:54.259Z,24.38
2023-06-26T05:56:09.240Z,24.38
2023-06-26T05:58:11.278Z,24.36
2023-06-26T06:00:13.204Z,24.37
2023-06-26T06:02:15.103Z,24.36
2023-06-26T06:08:29.712Z,24.36
2023-06-26T06:10:31.337Z,24.34
2023-06-26T06:12:33.214Z,24.34
2023-06-26T06:14:35.115Z,24.34
2023-06-26T06:18:42.892Z,24.35
2023-06-26T06:20:44.555Z,24.34
2023-06-26T06:22:46.360Z,24.34
2023-06-26T06:24:48.245Z,24.33
2023-06-26T06:26:49.739Z,24.32
2023-06-26T06:28:51.168Z,24.32
2023-06-26T06:30:52.971Z,24.32
2023-06-26T06:32:54.860Z,24.31
2023-06-26T06:34:56.350Z,24.32
2023-06-26T06:36:57.859Z,24.31
2023-06-26T06:38:59.419Z,24.32
2023-06-26T06:41:01.373Z,24.32
2023-06-26T06:43:03.384Z,24.33
2023-06-26T06:45:05.751Z,24.34
2023-06-26T06:47:07.490Z,24.35
2023-06-26T06:49:09.925Z,24.34
2023-06-26T06:51:11.437Z,24.33
2023-06-26T06:53:13.096Z,24.34
2023-06-26T06:55:14.658Z,24.33
2023-06-26T06:57:16.094Z,24.33
2023-06-26T07:01:24.004Z,24.34
2023-06-26T07:03:25.614Z,24.34
2023-06-26T07:05:27.207Z,24.33
2023-06-26T07:07:30.110Z,24.32
2023-06-26T07:09:31.587Z,24.33
2023-06-26T07:11:33.117Z,24.32
2023-06-26T07:13:34.689Z,24.34
2023-06-26T07:15:36.370Z,24.36
2023-06-26T07:17:39.832Z,24.49
2023-06-26T07:19:41.484Z,24.48
2023-06-26T07:21:44.489Z,24.50
2023-06-26T07:23:46.037Z,24.53
2023-06-26T07:25:47.591Z,24.53
2023-06-26T07:27:49.101Z,24.63
2023-06-26T07:29:50.652Z,24.66
2023-06-26T07:31:52.215Z,24.65
2023-06-26T07:33:53.688Z,24.67
2023-06-26T07:35:55.219Z,24.66
2023-06-26T07:37:56.917Z,24.65
2023-06-26T07:39:58.514Z,24.64
2023-06-26T07:42:02.845Z,24.67
2023-06-26T07:44:04.484Z,24.67
2023-06-26T07:46:06.050Z,24.66
2023-06-26T07:48:08.271Z,24.67
2023-06-26T07:50:09.900Z,24.66
2023-06-26T07:52:12.039Z,24.64
2023-06-26T07:54:13.606Z,24.62
2023-06-26T07:56:15.146Z,24.59
2023-06-26T07:58:16.671Z,24.58
2023-06-26T08:00:18.308Z,24.61
2023-06-26T08:02:19.883Z,24.60
2023-06-26T08:04:22.465Z,24.58
2023-06-26T08:06:24.876Z,24.58
2023-06-26T08:08:26.455Z,24.61
2023-06-26T08:16:46.475Z,24.58
2023-06-26T08:18:48.073Z,24.56
2023-06-26T08:20:49.707Z,24.54
2023-06-26T08:22:53.393Z,24.56
2023-06-26T08:24:55.168Z,24.56
2023-06-26T08:26:56.650Z,24.56
2023-06-26T08:28:58.158Z,24.53
2023-06-26T08:31:00.693Z,24.51
2023-06-26T08:33:02.473Z,24.49
2023-06-26T08:35:04.299Z,24.49
2023-06-26T08:37:05.942Z,24.49
2023-06-26T08:39:09.600Z,24.49
2023-06-26T08:41:11.556Z,24.51
2023-06-26T08:43:13.141Z,24.52
2023-06-26T08:45:14.697Z,24.55
2023-06-26T08:47:16.511Z,24.53
2023-06-26T08:49:45.038Z,24.52
2023-06-26T08:51:51.506Z,24.49
2023-06-26T08:53:59.964Z,24.48
2023-06-26T08:56:02.962Z,24.50
2023-06-26T08:58:05.086Z,24.51
2023-06-26T09:00:09.533Z,24.54
2023-06-26T09:02:11.580Z,24.53
2023-06-26T09:04:13.493Z,24.53
2023-06-26T09:06:15.099Z,24.52
2023-06-26T09:08:16.861Z,24.51
2023-06-26T09:10:18.380Z,24.54
2023-06-26T09:12:21.155Z,24.55
2023-06-26T09:14:22.801Z,24.55
2023-06-26T09:16:28.042Z,24.53
2023-06-26T09:18:29.845Z,24.53
2023-06-26T09:20:34.109Z,24.55
2023-06-26T09:22:39.583Z,24.55
2023-06-26T09:24:42.041Z,24.54
2023-06-26T09:26:44.082Z,24.55
2023-06-26T09:28:45.574Z,24.53
2023-06-26T09:30:47.372Z,24.51
2023-06-26T09:32:50.560Z,24.50
2023-06-26T09:34:53.941Z,24.51
2023-06-26T09:36:56.427Z,24.51
2023-06-26T09:38:58.050Z,24.51
2023-06-26T09:40:59.535Z,24.50
2023-06-26T09:43:07.596Z,24.49
2023-06-26T09:45:18.550Z,24.50
2023-06-26T09:47:20.589Z,24.52
2023-06-26T09:49:22.339Z,24.51
2023-06-26T09:51:23.943Z,24.51
2023-06-26T09:53:26.584Z,24.50
2023-06-26T09:55:28.242Z,24.52
2023-06-26T09:57:29.734Z,24.53
2023-06-26T09:59:31.428Z,24.53
2023-06-26T10:01:33.866Z,24.51
2023-06-26T10:03:35.699Z,24.51
2023-06-26T10:05:37.204Z,24.52
2023-06-26T10:07:39.331Z,24.52
2023-06-26T10:09:45.250Z,24.50
2023-06-26T10:11:46.827Z,24.52
2023-06-26T10:13:50.279Z,24.51
2023-06-26T10:15:52.964Z,24.50
2023-06-26T10:17:56.877Z,24.52
2023-06-26T10:20:00.240Z,24.51
2023-06-26T10:22:02.888Z,24.50
2023-06-26T10:24:05.964Z,24.52
2023-06-26T10:26:08.177Z,24.50
2023-06-26T10:28:10.822Z,24.48
2023-06-26T10:30:14.407Z,24.50
2023-06-26T10:32:16.869Z,24.51
2023-06-26T10:34:18.739Z,24.51
2023-06-26T10:36:22.012Z,24.53
2023-06-26T10:38:43.490Z,24.53
2023-06-26T10:40:46.875Z,24.55
2023-06-26T10:42:48.363Z,24.54
2023-06-26T10:44:49.905Z,24.53
2023-06-26T10:46:55.459Z,24.54
2023-06-26T10:48:58.772Z,24.56
2023-06-26T10:51:14.085Z,24.53
2023-06-26T10:53:36.112Z,24.55
2023-06-26T10:55:37.846Z,24.55
2023-06-26T10:57:42.268Z,24.55
2023-06-26T10:59:44.051Z,24.56
2023-06-26T11:01:47.227Z,24.56
2023-06-26T11:04:02.869Z,24.59
2023-06-26T11:06:15.015Z,24.56
2023-06-26T11:08:20.287Z,24.55
2023-06-26T11:10:21.758Z,24.55
2023-06-26T11:12:45.139Z,24.56
2023-06-26T11:14:47.229Z,24.56
2023-06-26T11:16:50.599Z,24.57
2023-06-26T11:18:52.329Z,24.55
2023-06-26T11:20:54.279Z,24.54
2023-06-26T11:22:57.823Z,24.53
2023-06-26T11:25:00.512Z,24.55
2023-06-26T11:27:03.542Z,24.53
2023-06-26T11:29:05.251Z,24.53
2023-06-26T11:31:06.827Z,24.52
2023-06-26T11:33:08.889Z,24.52
2023-06-26T11:35:10.775Z,24.51
2023-06-26T11:37:13.095Z,24.51
2023-06-26T11:39:14.603Z,24.52
2023-06-26T11:41:18.976Z,24.51
2023-06-26T11:43:21.277Z,24.51
2023-06-26T11:45:22.813Z,24.50
2023-06-26T11:47:25.329Z,24.49
2023-06-26T11:49:27.704Z,24.48
2023-06-26T11:51:29.660Z,24.48
2023-06-26T11:53:31.225Z,24.49
2023-06-26T11:55:41.665Z,24.48
2023-06-26T11:57:43.156Z,24.48
2023-06-26T11:59:44.787Z,24.46
2023-06-26T12:01:46.537Z,24.46
2023-06-26T12:03:48.297Z,24.47
2023-06-26T12:05:50.893Z,24.47
2023-06-26T12:07:52.600Z,24.49
2023-06-26T12:09:54.619Z,24.47
2023-06-26T12:11:57.202Z,24.48
2023-06-26T12:13:59.226Z,24.49
2023-06-26T12:16:00.840Z,24.49
2023-06-26T12:18:08.633Z,24.48
2023-06-26T12:20:23.146Z,24.47
2023-06-26T12:24:31.229Z,24.48
2023-06-26T12:26:37.844Z,24.48
2023-06-26T12:28:39.656Z,24.48
2023-06-26T12:37:02.416Z,24.52
2023-06-26T12:39:04.204Z,24.50
2023-06-26T12:41:05.715Z,24.52
2023-06-26T12:47:17.211Z,24.51
2023-06-26T12:51:27.747Z,24.43
2023-06-26T12:53:29.195Z,24.54
2023-06-26T12:55:30.634Z,24.54
2023-06-26T12:57:32.517Z,24.55
2023-06-26T12:59:34.934Z,24.56
2023-06-26T13:01:36.506Z,24.56
2023-06-26T13:03:38.475Z,24.55
2023-06-26T13:05:40.019Z,24.56
2023-06-26T13:07:41.728Z,24.56
2023-06-26T13:09:43.294Z,24.53
2023-06-26T13:11:44.872Z,24.55
2023-06-26T13:13:54.138Z,24.55
2023-06-26T13:16:06.711Z,24.55
2023-06-26T13:18:08.196Z,24.54
2023-06-26T13:20:10.101Z,24.56
2023-06-26T13:22:11.598Z,24.55
2023-06-26T13:24:14.057Z,24.55
2023-06-26T13:26:27.821Z,24.56
2023-06-26T13:28:37.742Z,24.56
2023-06-26T13:30:39.484Z,24.56
2023-06-26T13:32:41.412Z,24.57
2023-06-26T13:34:42.922Z,24.57
2023-06-26T13:36:44.717Z,24.58
2023-06-26T13:38:46.601Z,24.58
2023-06-26T13:40:48.105Z,24.58
2023-06-26T13:42:50.456Z,24.59
2023-06-26T13:45:02.554Z,24.58
2023-06-26T13:47:06.733Z,24.59
2023-06-26T13:49:09.415Z,24.59
2023-06-26T13:51:10.959Z,24.59
2023-06-26T13:53:12.525Z,24.60
2023-06-26T13:55:14.028Z,24.58
2023-06-26T13:57:15.647Z,24.57
2023-06-26T13:59:17.368Z,24.47
2023-06-26T14:01:18.914Z,24.57
2023-06-26T14:03:20.500Z,24.59
2023-06-26T14:05:33.326Z,24.57
2023-06-26T14:07:35.886Z,24.58
2023-06-26T14:09:37.534Z,24.58
2023-06-26T14:11:39.055Z,24.59
2023-06-26T14:13:40.611Z,24.60
2023-06-26T14:15:42.583Z,24.60
2023-06-26T14:17:44.180Z,24.62
2023-06-26T14:19:46.936Z,24.61
2023-06-26T14:21:48.400Z,24.60
2023-06-26T14:23:49.871Z,24.60
2023-06-26T14:25:51.752Z,24.62
2023-06-26T14:27:53.324Z,24.60
2023-06-26T14:29:54.807Z,24.59
2023-06-26T14:31:56.758Z,24.60
2023-06-26T14:34:00.220Z,24.59
2023-06-26T14:36:01.984Z,24.59
2023-06-26T14:38:03.825Z,24.59
2023-06-26T14:40:05.570Z,24.60
2023-06-26T14:42:08.022Z,24.60
2023-06-26T14:44:12.416Z,24.61
2023-06-26T14:46:14.868Z,24.61
2023-06-26T14:48:16.757Z,24.61
2023-06-26T14:50:18.357Z,24.61
2023-06-26T14:52:19.824Z,24.60
2023-06-26T14:54:21.373Z,24.60
2023-06-26T14:56:23.033Z,24.60
2023-06-26T14:58:24.690Z,24.60
2023-06-26T15:00:27.538Z,24.60
2023-06-26T15:02:29.095Z,24.61
2023-06-26T15:04:30.640Z,24.60
2023-06-26T15:06:32.198Z,24.60
2023-06-26T15:08:33.821Z,24.59
2023-06-26T15:10:35.268Z,24.59
2023-06-26T15:12:36.859Z,24.59
2023-06-26T15:14:38.402Z,24.56
2023-06-26T15:16:40.089Z,24.58
2023-06-26T15:18:41.990Z,24.57
2023-06-26T15:20:43.556Z,24.57
2023-06-26T15:22:45.025Z,24.57
2023-06-26T15:24:46.864Z,24.56
2023-06-26T15:26:48.377Z,24.56
2023-06-26T15:28:50.136Z,24.55
2023-06-26T15:30:51.809Z,24.56
2023-06-26T15:32:53.311Z,24.56
2023-06-26T15:34:55.395Z,24.55
2023-06-26T15:36:56.973Z,24.55
2023-06-26T15:38:58.479Z,24.55
2023-06-26T15:41:00.195Z,24.56
2023-06-26T15:43:01.681Z,24.56
2023-06-26T15:45:03.226Z,24.55
2023-06-26T15:47:04.822Z,24.54
2023-06-26T15:49:06.288Z,24.55
2023-06-26T15:51:09.499Z,24.55
2023-06-26T15:53:16.556Z,24.54
2023-06-26T15:55:18.112Z,24.52
2023-06-26T15:57:19.566Z,24.51
2023-06-26T15:59:21.109Z,24.50
2023-06-26T16:01:22.750Z,24.50
2023-06-26T16:03:24.226Z,24.50
2023-06-26T16:05:26.248Z,24.49
2023-06-26T16:09:32.362Z,24.48
2023-06-26T16:11:34.102Z,24.48
2023-06-26T16:13:35.801Z,24.49
2023-06-26T16:15:37.436Z,24.47
2023-06-26T16:17:39.127Z,24.47
2023-06-26T16:19:40.725Z,24.46
2023-06-26T16:21:42.423Z,24.46
2023-06-26T16:23:44.003Z,24.46
2023-06-26T16:25:46.922Z,24.44
2023-06-26T16:27:49.647Z,24.44
2023-06-26T16:29:51.212Z,24.44
2023-06-26T16:31:55.706Z,24.44
2023-06-26T16:33:57.784Z,24.44
2023-06-26T16:35:59.482Z,24.43
2023-06-26T16:38:01.981Z,24.42
2023-06-26T16:40:04.279Z,24.41
2023-06-26T16:42:06.242Z,24.38
2023-06-26T16:44:07.775Z,24.40
2023-06-26T16:46:09.297Z,24.38
2023-06-26T16:48:10.776Z,24.38
2023-06-26T16:50:12.471Z,24.37
2023-06-26T16:52:14.360Z,24.37
2023-06-26T16:54:15.891Z,24.36
2023-06-26T16:56:19.194Z,24.36
2023-06-26T16:58:23.025Z,24.35
2023-06-26T17:00:24.603Z,24.35
2023-06-26T17:02:27.118Z,24.34
2023-06-26T17:04:29.226Z,24.33
2023-06-26T17:06:30.727Z,24.33
2023-06-26T17:08:32.158Z,24.33
2023-06-26T17:10:33.928Z,24.34
2023-06-26T17:12:35.424Z,24.32
2023-06-26T17:14:36.906Z,24.32
2023-06-26T17:16:38.464Z,24.32
2023-06-26T17:18:39.977Z,24.32
2023-06-26T17:20:41.645Z,24.31
2023-06-26T17:22:45.070Z,24.29
2023-06-26T17:24:47.799Z,24.30
2023-06-26T17:26:49.395Z,24.29
2023-06-26T17:28:51.105Z,24.28
2023-06-26T17:30:52.587Z,24.27
2023-06-26T17:32:55.946Z,24.26
2023-06-26T17:34:57.608Z,24.24
2023-06-26T17:36:59.090Z,24.24
2023-06-26T17:39:01.572Z,24.23
2023-06-26T17:41:03.238Z,24.22
2023-06-26T17:43:04.869Z,24.12
2023-06-26T17:45:07.816Z,24.21
2023-06-26T17:47:09.366Z,24.19
2023-06-26T17:49:10.875Z,24.20
2023-06-26T17:51:12.796Z,24.19
2023-06-26T17:53:14.285Z,24.19
2023-06-26T17:55:15.839Z,24.17
2023-06-26T17:57:17.329Z,24.16
2023-06-26T17:59:19.269Z,24.15
2023-06-26T18:01:20.764Z,24.14
2023-06-26T18:03:22.470Z,24.14
2023-06-26T18:05:25.015Z,24.14
2023-06-26T18:07:26.579Z,24.13
2023-06-26T18:09:28.269Z,24.12
2023-06-26T18:11:31.772Z,24.12
2023-06-26T18:13:34.328Z,24.10
2023-06-26T18:15:35.981Z,24.09
2023-06-26T18:17:37.600Z,24.09
2023-06-26T18:19:39.055Z,24.08
2023-06-26T18:21:40.590Z,24.06
2023-06-26T18:23:42.246Z,24.07
2023-06-26T18:25:44.166Z,24.06
2023-06-26T18:27:45.876Z,24.06
2023-06-26T18:29:47.444Z,24.05
2023-06-26T18:31:49.181Z,24.04
2023-06-26T18:33:50.897Z,24.04
2023-06-26T18:35:52.357Z,24.04
2023-06-26T18:37:53.965Z,24.03
2023-06-26T18:39:55.514Z,24.02
2023-06-26T18:41:57.000Z,24.01
2023-06-26T18:43:58.541Z,24.02
2023-06-26T18:45:59.981Z,24.00
2023-06-26T18:48:02.248Z,23.99
2023-06-26T18:50:04.121Z,23.98
2023-06-26T18:52:05.787Z,23.98
2023-06-26T18:54:07.296Z,23.97
2023-06-26T18:58:15.300Z,23.96
2023-06-26T19:00:19.440Z,23.95
2023-06-26T19:02:21.264Z,23.96
2023-06-26T19:04:24.555Z,23.95
2023-06-26T19:06:26.149Z,23.94
2023-06-26T19:08:27.730Z,23.93
2023-06-26T19:10:29.187Z,23.93
2023-06-26T19:12:30.696Z,23.92
2023-06-26T19:14:32.658Z,23.91
2023-06-26T19:16:34.319Z,23.90
2023-06-26T19:18:37.441Z,23.91
2023-06-26T19:20:39.016Z,23.89
2023-06-26T19:22:41.057Z,23.90
2023-06-26T19:24:42.659Z,23.88
2023-06-26T19:26:44.321Z,23.88
2023-06-26T19:28:45.864Z,23.87
2023-06-26T19:30:47.435Z,23.87
2023-06-26T19:34:55.291Z,23.86
2023-06-26T19:36:56.972Z,23.75
2023-06-26T19:38:58.604Z,23.85
2023-06-26T19:45:08.178Z,23.83
2023-06-26T19:47:09.846Z,23.82
2023-06-26T19:49:11.695Z,23.81
2023-06-26T19:51:13.157Z,23.79
2023-06-26T19:55:21.350Z,23.79
2023-06-26T19:57:22.945Z,23.77
2023-06-26T19:59:26.008Z,23.77
2023-06-26T20:01:27.611Z,23.67
2023-06-26T20:03:29.179Z,23.75
2023-06-26T20:05:31.594Z,23.76
2023-06-26T20:09:34.949Z,23.74
2023-06-26T20:11:36.435Z,23.74
2023-06-26T20:13:37.882Z,23.73
2023-06-26T20:15:39.716Z,23.71
2023-06-26T20:17:42.955Z,23.72
2023-06-26T20:19:44.967Z,23.70
2023-06-26T20:21:46.894Z,23.70
2023-06-26T20:23:48.403Z,23.69
2023-06-26T20:25:50.435Z,23.68
2023-06-26T20:27:51.917Z,23.68
2023-06-26T20:29:53.362Z,23.68
2023-06-26T20:31:54.897Z,23.68
2023-06-26T20:33:56.504Z,23.67
2023-06-26T20:35:57.936Z,23.66
2023-06-26T20:38:01.224Z,23.66
2023-06-26T20:40:03.079Z,23.66
2023-06-26T20:42:05.009Z,23.65
2023-06-26T20:44:06.692Z,23.64
2023-06-26T20:46:08.501Z,23.64
2023-06-26T20:48:10.532Z,23.63
2023-06-26T20:50:14.143Z,23.62
2023-06-26T20:52:17.653Z,23.61
2023-06-26T20:54:19.437Z,23.62
2023-06-26T20:56:21.208Z,23.61
2023-06-26T20:58:22.721Z,23.60
2023-06-26T21:00:24.301Z,23.59
2023-06-26T21:02:25.862Z,23.59
2023-06-26T21:04:27.359Z,23.58
2023-06-26T21:06:28.819Z,23.59
2023-06-26T21:08:30.484Z,23.58
2023-06-26T21:10:31.997Z,23.58
2023-06-26T21:12:33.500Z,23.57
2023-06-26T21:14:34.967Z,23.57
2023-06-26T21:16:38.230Z,23.56
2023-06-26T21:18:39.806Z,23.57
2023-06-26T21:20:41.512Z,23.55
2023-06-26T21:22:43.137Z,23.55
2023-06-26T21:24:44.862Z,23.55
2023-06-26T21:26:46.294Z,23.54
2023-06-26T21:28:47.813Z,23.54
2023-06-26T21:30:49.424Z,23.54
2023-06-26T21:32:51.005Z,23.53
2023-06-26T21:34:52.510Z,23.53
2023-06-26T21:36:55.215Z,23.52
2023-06-26T21:38:56.702Z,23.52
2023-06-26T21:40:58.262Z,23.51
2023-06-26T21:42:59.852Z,23.51
2023-06-26T21:45:01.473Z,23.51
2023-06-26T21:47:03.151Z,23.50
2023-06-26T21:53:18.106Z,23.50
2023-06-26T21:55:19.799Z,23.48
2023-06-26T21:57:21.466Z,23.48
2023-06-26T21:59:23.306Z,23.48
2023-06-26T22:03:31.497Z,23.47
2023-06-26T22:05:33.055Z,23.45
2023-06-26T22:07:40.218Z,23.45
2023-06-26T22:09:53.139Z,23.44
2023-06-26T22:11:54.781Z,23.44
2023-06-26T22:13:56.312Z,23.43
2023-06-26T22:15:57.949Z,23.43
2023-06-26T22:17:59.575Z,23.43
2023-06-26T22:20:01.107Z,23.42
2023-06-26T22:22:02.795Z,23.41
2023-06-26T22:24:04.330Z,23.42
2023-06-26T22:26:06.041Z,23.41
2023-06-26T22:28:07.637Z,23.40
2023-06-26T22:30:09.362Z,23.39
2023-06-26T22:32:10.861Z,23.40
2023-06-26T22:34:15.002Z,23.39
2023-06-26T22:36:17.701Z,23.39
2023-06-26T22:38:19.161Z,23.38
2023-06-26T22:40:20.745Z,23.37
2023-06-26T22:42:22.386Z,23.36
2023-06-26T22:44:23.911Z,23.36
2023-06-26T22:46:25.405Z,23.35
2023-06-26T22:48:27.843Z,23.34
2023-06-26T22:50:29.343Z,23.34
2023-06-26T22:52:30.982Z,23.34
2023-06-26T22:54:32.732Z,23.34
2023-06-26T22:56:50.065Z,23.34
2023-06-26T22:58:55.764Z,23.32
2023-06-26T23:01:01.598Z,23.32
2023-06-26T23:03:03.342Z,23.32
2023-06-26T23:05:07.599Z,23.31
2023-06-26T23:07:09.205Z,23.31
2023-06-26T23:09:11.474Z,23.30
2023-06-26T23:11:12.947Z,23.30
2023-06-26T23:13:17.657Z,23.29
2023-06-26T23:15:19.101Z,23.29
2023-06-26T23:17:20.644Z,23.29
2023-06-26T23:19:24.726Z,23.28
2023-06-26T23:21:29.319Z,23.29
2023-06-26T23:23:30.813Z,23.28
2023-06-26T23:25:35.348Z,23.27
2023-06-26T23:27:42.623Z,23.27
2023-06-26T23:29:44.378Z,23.27
2023-06-26T23:31:48.725Z,23.26
2023-06-26T23:33:50.917Z,23.25
2023-06-26T23:35:54.747Z,23.24
2023-06-26T23:37:56.696Z,23.24
2023-06-26T23:39:58.235Z,23.24
2023-06-26T23:41:59.936Z,23.23
2023-06-26T23:44:04.392Z,23.23
2023-06-26T23:46:11.211Z,23.23
2023-06-26T23:48:12.937Z,23.23
2023-06-26T23:50:14.644Z,23.22
2023-06-26T23:52:16.195Z,23.21
2023-06-26T23:54:17.819Z,23.21
2023-06-26T23:56:19.294Z,23.21
2023-06-26T23:58:20.802Z,23.21
